WetterOnline ( https://www.wetteronline.ch )

Wetter aktuell Leck

Aktuelles Wetter: Leck (17m)

6-stündlich | Neueste Meldungen
Ortszeit Temperatur Wetter
Di, 12.11. 1:00 4.4° C bedeckt
Mo, 11.11. 19:00 4.5° C bedeckt
Mo, 11.11. 13:00 5.5° C wolkig
Mo, 11.11. 7:00 4.7° C bedeckt
Mo, 11.11. 1:00 7.5° C bedeckt
So, 10.11. 19:00 6.4° C leichter Regen
So, 10.11. 13:00 6.4° C bewölkt
So, 10.11. 7:00 3.5° C bewölkt
Ortszeit Temperatur Wetter
Di, 12.11. 4:30 5.6° C bedeckt
Di, 12.11. 4:20 5.6° C bedeckt
Di, 12.11. 4:10 5.5° C bedeckt
Di, 12.11. 4:00 5.4° C bedeckt
Di, 12.11. 3:50 5.4° C bedeckt
Di, 12.11. 3:40 5.5° C bedeckt
Di, 12.11. 3:30 5.4° C bedeckt
Di, 12.11. 3:00 5.2° C bedeckt
Di, 12.11. 2:00 4.9° C bedeckt
Di, 12.11. 0:00 3.9° C Sprühregen
Ortszeit Relative Feuchte Sichtweite
Di, 12.11. 1:00 84% 13 km
Mo, 11.11. 19:00 86% 14 km
Mo, 11.11. 13:00 82% -
Mo, 11.11. 7:00 91% 4.1 km
Mo, 11.11. 1:00 79% 70 km
So, 10.11. 19:00 90% 6 km
So, 10.11. 13:00 85% 8 km
So, 10.11. 7:00 97% 3.2 km
Ortszeit Relative Feuchte Sichtweite
Di, 12.11. 4:30 86% 12 km
Di, 12.11. 4:20 86% -
Di, 12.11. 4:10 86% -
Di, 12.11. 4:00 86% 12 km
Di, 12.11. 3:50 86% -
Di, 12.11. 3:40 86% -
Di, 12.11. 3:30 85% 12 km
Di, 12.11. 3:00 86% 12 km
Di, 12.11. 2:00 83% 14 km
Di, 12.11. 0:00 87% 10 km
Ortszeit Niederschlagsmenge Niederschlagsart
Di, 12.11. 1:00 0.1 l/m2 in 6 Std. Regen
Mo, 11.11. 19:00 0.0 l/m2 in 12 Std. -
Mo, 11.11. 13:00 0.0 l/m2 in 6 Std. -
Mo, 11.11. 7:00 3 l/m2 in 12 Std. Regen
Mo, 11.11. 1:00 1 l/m2 in 6 Std. Regen
So, 10.11. 19:00 1 l/m2 in 12 Std. Regen
So, 10.11. 13:00 0.1 l/m2 in 6 Std. Regen
So, 10.11. 7:00 0.1 l/m2 in 12 Std. Regen
Ortszeit Niederschlagsmenge Niederschlagsart
Di, 12.11. 4:30 0.0 l/m2 in 1 Std. -
Di, 12.11. 4:20 keine Meldung -
Di, 12.11. 4:10 keine Meldung -
Di, 12.11. 4:00 0.0 l/m2 in 1 Std. Regen
Di, 12.11. 3:50 keine Meldung -
Di, 12.11. 3:40 keine Meldung -
Di, 12.11. 3:30 0.0 l/m2 in 1 Std. -
Di, 12.11. 3:00 0.1 l/m2 in 1 Std. Regen
Di, 12.11. 2:00 keine Meldung -
Di, 12.11. 0:00 keine Meldung -
Ortszeit Stärke Spitze Richtung
km/h Bft. km/h Grad Sektor
Di, 12.11. 1:00 22 4 46 150° SO
Mo, 11.11. 19:00 25 4 43 140° SO
Mo, 11.11. 13:00 18 3 36 160° S
Mo, 11.11. 7:00 18 3 47 180° S
Mo, 11.11. 1:00 18 3 36 220° SW
So, 10.11. 19:00 22 4 36 150° SO
So, 10.11. 13:00 11 2 18 160° S
So, 10.11. 7:00 7 2 18 90° O
Ortszeit Stärke Spitze Richtung
km/h Bft. km/h Grad Sektor
Di, 12.11. 4:30 24 4 35 160° S
Di, 12.11. 4:20 24 4 - 160° S
Di, 12.11. 4:10 22 4 - 160° S
Di, 12.11. 4:00 22 4 41 160° S
Di, 12.11. 3:50 22 4 - 160° S
Di, 12.11. 3:40 25 4 - 170° S
Di, 12.11. 3:30 28 4 41 170° S
Di, 12.11. 3:00 25 4 40 170° S
Di, 12.11. 2:00 25 4 36 150° SO
Di, 12.11. 0:00 25 4 43 150° SO
Ortszeit Untergrenze Bedeckung Gattung
total tief tief mittel hoch
Di, 12.11. 1:00 510 m 8/8 8/8 - - -
Mo, 11.11. 19:00 1230 m 8/8 8/8 - - -
Mo, 11.11. 13:00 390 m 7/8 5/8 - - -
Mo, 11.11. 7:00 4500 m 8/8 8/8 - - -
Mo, 11.11. 1:00 810 m 8/8 8/8 - - -
So, 10.11. 19:00 420 m 7/8 7/8 - - -
So, 10.11. 13:00 1200 m 7/8 7/8 - - -
So, 10.11. 7:00 630 m 7/8 7/8 - - -
Ortszeit Bedeckungsgrad in Achtel und Wolkenuntergrenze
Di, 12.11. 4:30 8(330m)
Di, 12.11. 4:20 8(330m)
Di, 12.11. 4:10 8(330m)
Di, 12.11. 4:00 8(330m)
Di, 12.11. 3:50 8(330m)
Di, 12.11. 3:40 8(360m)
Di, 12.11. 3:30 8(360m)
Di, 12.11. 3:00 8(390m)
Di, 12.11. 2:00 8(450m)
Di, 12.11. 0:00 6(780m) 8(3300m) 8(4200m)
Ortszeit Luftdruck NN (hPa) Tendenz (hPa in 3 Std.)
Di, 12.11. 1:00 998 - 1,6
Mo, 11.11. 19:00 1001 - 1,4
Mo, 11.11. 13:00 1005 - 1,9
Mo, 11.11. 7:00 1008 - 1,7
Mo, 11.11. 1:00 1011 - 0,4
So, 10.11. 19:00 1011 - 0,5
So, 10.11. 13:00 1012 + 0,5
So, 10.11. 7:00 1010 + 1,2
Ortszeit Luftdruck NN (hPa) Tendenz (hPa in 3 Std.)
Di, 12.11. 4:30 997 - 0,6
Di, 12.11. 4:20 997 keine Meldung
Di, 12.11. 4:10 998 keine Meldung
Di, 12.11. 4:00 998 - 0,7
Di, 12.11. 3:50 998 keine Meldung
Di, 12.11. 3:40 998 keine Meldung
Di, 12.11. 3:30 998 - 1,0
Di, 12.11. 3:00 998 - 1,1
Di, 12.11. 2:00 998 - 1,3
Di, 12.11. 0:00 999 - 1,5
Ortszeit Schneehöhe (cm)
Di, 12.11. 1:00 0
Mo, 11.11. 19:00 0
Mo, 11.11. 13:00 0
Mo, 11.11. 7:00 0
Mo, 11.11. 1:00 0
So, 10.11. 19:00 0
So, 10.11. 13:00 0
So, 10.11. 7:00 0
Ortszeit Schneehöhe (cm)
Di, 12.11. 4:30 0
Di, 12.11. 4:20 0
Di, 12.11. 4:10 0
Di, 12.11. 4:00 0
Di, 12.11. 3:50 0
Di, 12.11. 3:40 0
Di, 12.11. 3:30 0
Di, 12.11. 3:00 0
Di, 12.11. 2:00 -
Di, 12.11. 0:00 -
Link zu dieser Seite / Seite empfehlen

Das Wetter in ...